createdAt,value
2019-01-19T00:01:03.750Z,24.07
2019-01-19T00:04:06.513Z,22.57
2019-01-19T00:07:00.714Z,24.67
2019-01-19T00:09:40.585Z,23.30
2019-01-19T00:12:36.699Z,23.27
2019-01-19T00:15:16.321Z,24.50
2019-01-19T00:18:12.447Z,22.37
2019-01-19T00:21:13.902Z,25.80
2019-01-19T00:24:23.623Z,22.53
2019-01-19T00:27:25.997Z,23.30
2019-01-19T00:30:35.359Z,22.47
2019-01-19T00:33:30.468Z,22.57
2019-01-19T00:36:08.105Z,21.57
2019-01-19T00:39:17.967Z,24.73
2019-01-19T00:42:11.862Z,25.07
2019-01-19T00:45:20.968Z,23.17
2019-01-19T00:48:28.879Z,23.87
2019-01-19T00:51:38.074Z,23.93
2019-01-19T00:54:20.440Z,22.40
2019-01-19T00:57:14.375Z,21.33
2019-01-19T00:59:49.470Z,23.47
2019-01-19T01:02:58.278Z,23.30
2019-01-19T01:05:55.866Z,23.27
2019-01-19T01:09:05.106Z,23.63
2019-01-19T01:11:51.949Z,23.13
2019-01-19T01:14:54.959Z,22.17
2019-01-19T01:18:03.995Z,20.87
2019-01-19T01:20:47.400Z,22.73
2019-01-19T01:23:36.828Z,24.20
2019-01-19T01:26:36.148Z,23.80
2019-01-19T01:29:45.470Z,25.13
2019-01-19T01:32:28.336Z,25.93
2019-01-19T01:35:23.003Z,25.37
2019-01-19T01:38:06.224Z,25.27
2019-01-19T01:41:05.434Z,26.27
2019-01-19T01:44:14.141Z,25.90
2019-01-19T01:47:23.174Z,24.83
2019-01-19T01:50:20.552Z,24.27
2019-01-19T01:53:26.450Z,26.67
2019-01-19T01:56:01.294Z,25.37
2019-01-19T01:58:55.780Z,24.47
2019-01-19T02:01:40.156Z,20.13
2019-01-19T02:04:49.398Z,25.83
2019-01-19T02:07:27.536Z,24.87
2019-01-19T02:10:28.269Z,24.87
2019-01-19T02:13:21.582Z,26.10
2019-01-19T02:16:21.407Z,27.60
2019-01-19T02:19:20.405Z,25.87
2019-01-19T02:22:18.275Z,25.63
2019-01-19T02:25:12.239Z,25.83
2019-01-19T02:28:07.980Z,25.83
2019-01-19T02:31:07.702Z,25.53
2019-01-19T02:33:53.939Z,26.13
2019-01-19T02:37:03.111Z,27.00
2019-01-19T02:40:00.342Z,25.70
2019-01-19T02:42:59.887Z,25.67
2019-01-19T02:45:57.418Z,26.77
2019-01-19T02:49:06.860Z,27.23
2019-01-19T02:51:47.740Z,28.27
2019-01-19T02:54:42.631Z,28.20
2019-01-19T02:57:51.957Z,28.17
2019-01-19T03:00:57.230Z,29.67
2019-01-19T03:03:55.013Z,26.03
2019-01-19T03:06:48.507Z,29.20
2019-01-19T03:09:32.421Z,28.23
2019-01-19T03:12:20.060Z,27.30
2019-01-19T03:15:15.820Z,25.70
2019-01-19T03:18:25.002Z,29.03
2019-01-19T03:21:22.037Z,28.63
2019-01-19T03:24:22.074Z,30.83
2019-01-19T03:27:31.305Z,27.80
2019-01-19T03:30:31.279Z,30.30
2019-01-19T03:33:35.350Z,29.73
2019-01-19T03:36:35.630Z,30.33
2019-01-19T03:39:45.114Z,29.80
2019-01-19T03:42:46.654Z,29.53
2019-01-19T03:45:42.458Z,29.47
2019-01-19T03:48:27.390Z,30.07
2019-01-19T03:51:18.516Z,27.30
2019-01-19T03:54:11.175Z,26.40
2019-01-19T03:56:50.160Z,27.03
2019-01-19T03:59:44.795Z,29.43
2019-01-19T04:02:39.891Z,27.40
2019-01-19T04:05:48.761Z,27.07
2019-01-19T04:08:51.347Z,27.43
2019-01-19T04:11:47.598Z,28.33
2019-01-19T04:14:56.896Z,27.73
2019-01-19T04:17:50.632Z,27.77
2019-01-19T04:20:59.139Z,30.27
2019-01-19T04:23:30.211Z,26.67
2019-01-19T04:26:12.421Z,30.03
2019-01-19T04:28:44.150Z,27.20
2019-01-19T04:31:15.161Z,29.10
2019-01-19T04:33:46.888Z,29.77
2019-01-19T04:36:21.708Z,29.80
2019-01-19T04:38:51.126Z,27.60
2019-01-19T04:41:22.116Z,27.63
2019-01-19T04:43:52.859Z,29.57
2019-01-19T04:46:24.307Z,29.23
2019-01-19T04:48:55.772Z,27.77
2019-01-19T04:51:27.362Z,26.73
2019-01-19T04:53:58.560Z,28.30
2019-01-19T04:56:30.160Z,28.67
2019-01-19T04:59:01.271Z,28.23
2019-01-19T05:01:32.520Z,27.70
2019-01-19T05:04:04.108Z,27.47
2019-01-19T05:06:35.534Z,27.10
2019-01-19T05:09:08.831Z,24.17
2019-01-19T05:11:39.823Z,26.17
2019-01-19T05:14:11.096Z,24.33
2019-01-19T05:16:42.348Z,25.43
2019-01-19T05:19:14.043Z,27.13
2019-01-19T05:21:45.749Z,28.30
2019-01-19T05:24:16.734Z,25.10
2019-01-19T05:26:48.462Z,23.10
2019-01-19T05:29:19.659Z,24.77
2019-01-19T05:31:50.917Z,25.43
2019-01-19T05:34:22.203Z,24.43
2019-01-19T05:36:53.332Z,23.57
2019-01-19T05:39:24.274Z,22.43
2019-01-19T05:41:54.682Z,23.07
2019-01-19T05:44:25.539Z,23.37
2019-01-19T05:46:56.267Z,22.10
2019-01-19T05:49:27.481Z,24.97
2019-01-19T05:51:58.978Z,25.77
2019-01-19T05:54:29.733Z,23.07
2019-01-19T05:57:00.837Z,23.73
2019-01-19T05:59:32.002Z,22.97
2019-01-19T06:02:04.118Z,22.87
2019-01-19T06:04:35.477Z,25.00
2019-01-19T06:07:06.499Z,26.07
2019-01-19T06:09:37.739Z,23.93
2019-01-19T06:12:08.923Z,23.67
2019-01-19T06:14:40.060Z,23.43
2019-01-19T06:17:11.037Z,22.70
2019-01-19T06:19:42.675Z,23.07
2019-01-19T06:22:14.446Z,24.13
2019-01-19T06:24:46.271Z,27.17
2019-01-19T06:27:17.317Z,24.90
2019-01-19T06:29:48.631Z,22.23
2019-01-19T06:32:19.372Z,23.87
2019-01-19T06:34:51.137Z,23.73
2019-01-19T06:37:22.074Z,22.97
2019-01-19T06:39:53.785Z,24.30
2019-01-19T06:42:24.661Z,22.67
2019-01-19T06:44:55.709Z,25.67
2019-01-19T06:47:26.707Z,24.10
2019-01-19T06:49:58.191Z,23.90
2019-01-19T06:52:29.431Z,23.40
2019-01-19T06:55:00.448Z,22.63
2019-01-19T06:57:31.541Z,21.70
2019-01-19T07:00:02.408Z,21.47
2019-01-19T07:02:34.888Z,21.17
2019-01-19T07:05:06.751Z,21.63
2019-01-19T07:07:38.226Z,24.40
2019-01-19T07:10:13.193Z,23.03
2019-01-19T07:12:44.313Z,22.87
2019-01-19T07:15:15.825Z,22.33
2019-01-19T07:17:47.350Z,22.13
2019-01-19T07:20:21.344Z,32.20
2019-01-19T07:22:52.575Z,24.97
2019-01-19T07:25:23.485Z,25.20
2019-01-19T07:27:54.606Z,24.33
2019-01-19T07:30:25.268Z,27.20
2019-01-19T07:32:56.628Z,25.77
2019-01-19T07:35:27.441Z,24.50
2019-01-19T07:37:59.114Z,24.13
2019-01-19T07:40:30.152Z,22.10
2019-01-19T07:43:05.816Z,24.30
2019-01-19T07:45:36.716Z,23.83
2019-01-19T07:48:09.022Z,24.77
2019-01-19T07:50:40.818Z,23.90
2019-01-19T07:53:12.215Z,25.50
2019-01-19T07:55:43.365Z,24.53
2019-01-19T07:58:14.405Z,24.33
2019-01-19T08:00:45.669Z,27.47
2019-01-19T08:03:17.327Z,38.57
2019-01-19T08:05:48.269Z,24.60
2019-01-19T08:08:19.619Z,25.23
2019-01-19T08:10:50.528Z,26.63
2019-01-19T08:13:21.938Z,25.73
2019-01-19T08:15:52.617Z,27.43
2019-01-19T08:18:23.858Z,24.63
2019-01-19T08:20:55.096Z,35.17
2019-01-19T08:23:27.173Z,25.40
2019-01-19T08:25:58.307Z,26.10
2019-01-19T08:28:29.448Z,25.70
2019-01-19T08:31:00.404Z,25.80
2019-01-19T08:33:32.048Z,28.03
2019-01-19T08:36:02.857Z,26.07
2019-01-19T08:38:33.934Z,26.90
2019-01-19T08:41:04.860Z,27.03
2019-01-19T08:43:46.556Z,26.47
2019-01-19T08:46:17.395Z,26.60
2019-01-19T08:48:48.647Z,26.83
2019-01-19T08:51:20.895Z,28.27
2019-01-19T08:53:52.346Z,30.90
2019-01-19T08:56:23.586Z,26.40
2019-01-19T08:58:54.773Z,26.43
2019-01-19T09:01:25.603Z,26.20
2019-01-19T09:03:57.884Z,25.30
2019-01-19T09:06:29.074Z,26.90
2019-01-19T09:09:00.434Z,26.07
2019-01-19T09:11:33.313Z,25.27
2019-01-19T09:14:04.149Z,22.67
2019-01-19T09:16:39.554Z,25.60
2019-01-19T09:19:08.627Z,23.70
2019-01-19T09:21:40.515Z,21.80
2019-01-19T09:24:16.918Z,25.83
2019-01-19T09:26:48.007Z,25.13
2019-01-19T09:29:18.920Z,25.53
2019-01-19T09:31:49.703Z,21.90
2019-01-19T09:34:21.344Z,24.97
2019-01-19T09:36:51.694Z,23.33
2019-01-19T09:39:22.930Z,23.47
2019-01-19T09:41:54.465Z,23.30
2019-01-19T09:44:25.415Z,24.10
2019-01-19T09:46:56.335Z,24.57
2019-01-19T09:49:28.007Z,23.07
2019-01-19T09:51:58.620Z,24.60
2019-01-19T09:54:29.615Z,27.90
2019-01-19T09:57:01.734Z,26.97
2019-01-19T09:59:32.170Z,24.03
2019-01-19T10:02:05.018Z,29.20
2019-01-19T10:04:36.365Z,26.43
2019-01-19T10:07:07.839Z,29.00
2019-01-19T10:09:38.701Z,26.60
2019-01-19T10:12:09.629Z,25.63
2019-01-19T10:14:41.257Z,27.37
2019-01-19T10:17:12.418Z,26.17
2019-01-19T10:19:43.165Z,26.13
2019-01-19T10:22:13.950Z,25.07
2019-01-19T10:24:45.528Z,24.67
2019-01-19T10:27:16.801Z,32.77
2019-01-19T10:29:47.758Z,20.90
2019-01-19T10:32:18.132Z,19.73
2019-01-19T10:34:48.758Z,19.73
2019-01-19T10:37:19.559Z,19.60
2019-01-19T10:39:51.081Z,22.42
2019-01-19T10:42:21.425Z,22.17
2019-01-19T10:44:52.745Z,20.40
2019-01-19T10:47:23.847Z,21.47
2019-01-19T10:49:55.411Z,20.87
2019-01-19T10:52:26.266Z,22.20
2019-01-19T10:54:56.758Z,20.73
2019-01-19T10:57:27.078Z,19.60
2019-01-19T10:59:58.176Z,18.87
2019-01-19T11:02:29.056Z,19.13
2019-01-19T11:05:00.790Z,18.77
2019-01-19T11:07:32.404Z,21.27
2019-01-19T11:10:03.149Z,19.20
2019-01-19T11:12:33.925Z,18.80
2019-01-19T11:15:04.769Z,14.87
2019-01-19T11:17:35.234Z,16.13
2019-01-19T11:20:08.492Z,17.93
2019-01-19T11:22:39.663Z,15.97
2019-01-19T11:25:11.699Z,15.67
2019-01-19T11:27:43.743Z,16.63
2019-01-19T11:30:20.103Z,16.77
2019-01-19T11:32:50.885Z,19.00
2019-01-19T11:35:22.348Z,17.77
2019-01-19T11:37:54.175Z,18.00
2019-01-19T11:40:28.116Z,19.63
2019-01-19T11:42:58.784Z,19.07
2019-01-19T11:45:29.935Z,18.37
2019-01-19T11:48:01.270Z,17.10
2019-01-19T11:50:32.576Z,16.87
2019-01-19T11:53:03.334Z,17.30
2019-01-19T11:55:38.374Z,18.77
2019-01-19T11:58:10.034Z,18.80
2019-01-19T12:00:42.741Z,21.90
2019-01-19T12:03:13.784Z,20.03
2019-01-19T12:05:46.546Z,21.10
2019-01-19T12:08:19.655Z,20.57
2019-01-19T12:10:50.699Z,22.00
2019-01-19T12:13:21.898Z,19.70
2019-01-19T12:15:52.477Z,19.47
2019-01-19T12:18:25.569Z,22.17
2019-01-19T12:20:56.210Z,20.70
2019-01-19T12:23:27.308Z,21.70
2019-01-19T12:25:58.561Z,19.70
2019-01-19T12:28:29.049Z,19.67
2019-01-19T12:31:00.941Z,23.10
2019-01-19T12:33:31.503Z,20.65
2019-01-19T12:36:02.498Z,18.63
2019-01-19T12:38:34.046Z,20.60
2019-01-19T12:41:05.357Z,18.83
2019-01-19T12:43:36.716Z,18.20
2019-01-19T12:46:09.925Z,18.30
2019-01-19T12:48:40.866Z,18.97
2019-01-19T12:51:13.919Z,19.37
2019-01-19T12:53:44.810Z,17.20
2019-01-19T12:56:16.147Z,18.90
2019-01-19T12:58:47.274Z,16.97
2019-01-19T13:01:17.857Z,18.53
2019-01-19T13:03:49.460Z,16.87
2019-01-19T13:06:38.141Z,17.73
2019-01-19T13:09:22.991Z,19.20
2019-01-19T13:12:24.100Z,19.37
2019-01-19T13:15:34.873Z,19.33
2019-01-19T13:18:37.309Z,18.53
2019-01-19T13:21:34.496Z,19.67
2019-01-19T13:24:43.280Z,21.20
2019-01-19T13:27:38.395Z,20.47
2019-01-19T13:30:47.876Z,20.60
2019-01-19T13:33:41.105Z,18.70
2019-01-19T13:36:42.714Z,20.53
2019-01-19T13:39:30.805Z,20.27
2019-01-19T13:42:35.419Z,20.47
2019-01-19T13:45:20.920Z,19.60
2019-01-19T13:48:31.215Z,19.67
2019-01-19T13:51:25.575Z,21.17
2019-01-19T13:54:34.509Z,19.53
2019-01-19T13:57:27.038Z,18.97
2019-01-19T14:00:22.848Z,20.53
2019-01-19T14:03:32.301Z,19.23
2019-01-19T14:06:29.208Z,20.20
2019-01-19T14:09:27.809Z,19.03
2019-01-19T14:12:23.637Z,22.00
2019-01-19T14:15:22.690Z,21.37
2019-01-19T14:18:19.464Z,20.67
2019-01-19T14:21:22.196Z,20.27
2019-01-19T14:24:23.303Z,20.10
2019-01-19T14:27:08.005Z,22.33
2019-01-19T14:29:57.864Z,18.40
2019-01-19T14:32:52.575Z,19.20
2019-01-19T14:36:02.026Z,23.27
2019-01-19T14:39:10.908Z,20.27
2019-01-19T14:42:16.392Z,20.77
2019-01-19T14:45:01.454Z,21.70
2019-01-19T14:47:58.740Z,23.43
2019-01-19T14:50:47.375Z,19.90
2019-01-19T14:53:36.306Z,19.70
2019-01-19T14:56:34.519Z,20.67
2019-01-19T14:59:24.385Z,19.93
2019-01-19T15:02:33.990Z,21.23
2019-01-19T15:05:20.866Z,20.03
2019-01-19T15:08:02.648Z,21.10
2019-01-19T15:11:11.730Z,20.93
2019-01-19T15:14:21.362Z,19.27
2019-01-19T15:17:17.922Z,19.73
2019-01-19T15:20:27.097Z,19.67
2019-01-19T15:23:13.711Z,20.57
2019-01-19T15:26:18.957Z,31.77
2019-01-19T15:29:14.027Z,21.67
2019-01-19T15:32:11.164Z,23.30
2019-01-19T15:34:53.309Z,21.97
2019-01-19T15:37:51.660Z,22.83
2019-01-19T15:40:52.458Z,22.27
2019-01-19T15:44:01.452Z,21.23
2019-01-19T15:47:05.666Z,21.77
2019-01-19T15:50:08.338Z,22.80
2019-01-19T15:52:56.691Z,22.57
2019-01-19T15:56:01.913Z,24.63
2019-01-19T15:58:56.509Z,22.23
2019-01-19T16:02:01.627Z,23.07
2019-01-19T16:05:10.425Z,24.77
2019-01-19T16:08:10.423Z,26.00
2019-01-19T16:11:06.432Z,24.70
2019-01-19T16:14:15.411Z,27.17
2019-01-19T16:17:13.184Z,26.33
2019-01-19T16:20:26.138Z,27.70
2019-01-19T16:23:21.340Z,32.43
2019-01-19T16:26:21.684Z,29.00
2019-01-19T16:29:15.324Z,27.93
2019-01-19T16:32:07.747Z,29.00
2019-01-19T16:35:00.905Z,30.80
2019-01-19T16:37:44.961Z,30.13
2019-01-19T16:40:30.652Z,28.83
2019-01-19T16:43:15.734Z,29.80
2019-01-19T16:46:18.826Z,31.00
2019-01-19T16:49:14.409Z,29.57
2019-01-19T16:52:23.556Z,30.07
2019-01-19T16:55:20.459Z,32.13
2019-01-19T16:58:13.435Z,32.67
2019-01-19T17:01:11.888Z,32.00
2019-01-19T17:04:21.129Z,33.93
2019-01-19T17:07:20.494Z,32.33
2019-01-19T17:09:57.016Z,31.50
2019-01-19T17:13:05.883Z,44.60
2019-01-19T17:16:00.987Z,35.27
2019-01-19T17:19:10.492Z,40.00
2019-01-19T17:21:57.521Z,43.30
2019-01-19T17:25:06.555Z,46.00
2019-01-19T17:28:06.069Z,53.00
2019-01-19T17:31:09.353Z,50.90
2019-01-19T17:33:48.138Z,53.10
2019-01-19T17:36:40.252Z,46.73
2019-01-19T17:39:40.441Z,49.50
2019-01-19T17:42:29.444Z,53.20
2019-01-19T17:45:39.027Z,49.43
2019-01-19T17:48:40.516Z,51.97
2019-01-19T17:51:26.134Z,50.80
2019-01-19T17:54:08.406Z,50.90
2019-01-19T17:56:45.730Z,58.40
2019-01-19T17:59:49.377Z,49.17
2019-01-19T18:02:45.377Z,46.63
2019-01-19T18:05:47.481Z,49.40
2019-01-19T18:08:44.043Z,48.47
2019-01-19T18:11:39.235Z,48.83
2019-01-19T18:14:31.875Z,48.10
2019-01-19T18:17:28.621Z,48.47
2019-01-19T18:20:38.306Z,241.80
2019-01-19T18:23:35.979Z,50.63
2019-01-19T18:26:34.800Z,47.40
2019-01-19T18:29:29.476Z,44.23
2019-01-19T18:32:16.247Z,48.40
2019-01-19T18:35:10.982Z,48.37
2019-01-19T18:38:16.914Z,47.00
2019-01-19T18:41:10.257Z,50.20
2019-01-19T18:44:19.261Z,52.13
2019-01-19T18:47:05.785Z,50.87
2019-01-19T18:49:59.210Z,50.53
2019-01-19T18:52:53.514Z,58.37
2019-01-19T18:55:44.613Z,52.33
2019-01-19T18:58:40.623Z,49.67
2019-01-19T19:01:36.362Z,52.17
2019-01-19T19:04:45.075Z,51.90
2019-01-19T19:07:33.539Z,51.17
2019-01-19T19:10:42.912Z,56.93
2019-01-19T19:13:42.781Z,50.13
2019-01-19T19:16:23.946Z,49.87
2019-01-19T19:19:15.716Z,46.90
2019-01-19T19:22:22.463Z,50.57
2019-01-19T19:25:24.231Z,47.80
2019-01-19T19:28:20.834Z,56.40
2019-01-19T19:31:15.674Z,56.80
2019-01-19T19:34:10.465Z,51.80
2019-01-19T19:37:19.396Z,54.57
2019-01-19T19:40:19.346Z,56.97
2019-01-19T19:43:16.568Z,55.13
2019-01-19T19:46:11.841Z,57.83
2019-01-19T19:49:12.077Z,55.40
2019-01-19T19:51:58.536Z,56.30
2019-01-19T19:54:31.320Z,57.03
2019-01-19T19:57:02.553Z,53.30
2019-01-19T19:59:33.462Z,54.50
2019-01-19T20:02:04.643Z,52.73
2019-01-19T20:04:35.974Z,53.13
2019-01-19T20:07:10.883Z,49.93
2019-01-19T20:09:42.675Z,53.97
2019-01-19T20:12:13.916Z,64.83
2019-01-19T20:14:45.061Z,59.53
2019-01-19T20:17:16.920Z,55.23
2019-01-19T20:19:47.654Z,53.90
2019-01-19T20:22:19.849Z,57.90
2019-01-19T20:24:51.198Z,60.00
2019-01-19T20:27:22.710Z,61.00
2019-01-19T20:29:54.933Z,53.20
2019-01-19T20:32:27.197Z,52.63
2019-01-19T20:34:58.154Z,53.23
2019-01-19T20:37:29.393Z,52.87
2019-01-19T20:40:00.192Z,51.83
2019-01-19T20:42:31.658Z,48.70
2019-01-19T20:45:03.490Z,50.10
2019-01-19T20:47:35.001Z,46.77
2019-01-19T20:50:07.500Z,50.60
2019-01-19T20:52:39.830Z,48.83
2019-01-19T20:55:14.418Z,58.93
2019-01-19T20:57:45.706Z,74.77
2019-01-19T21:00:18.080Z,92.57
2019-01-19T21:02:49.571Z,52.87
2019-01-19T21:05:25.430Z,63.57
2019-01-19T21:07:57.362Z,64.10
2019-01-19T21:10:31.877Z,53.17
2019-01-19T21:13:01.254Z,52.93
2019-01-19T21:15:35.816Z,52.90
2019-01-19T21:18:07.673Z,60.07
2019-01-19T21:20:38.391Z,59.00
2019-01-19T21:23:09.028Z,55.20
2019-01-19T21:25:41.319Z,55.40
2019-01-19T21:28:12.675Z,53.87
2019-01-19T21:30:47.240Z,52.80
2019-01-19T21:33:18.371Z,49.43
2019-01-19T21:35:49.229Z,54.30
2019-01-19T21:38:20.243Z,51.43
2019-01-19T21:40:51.223Z,53.60
2019-01-19T21:43:26.761Z,55.23
2019-01-19T21:45:57.621Z,56.97
2019-01-19T21:48:28.477Z,72.37
2019-01-19T21:50:59.797Z,71.57
2019-01-19T21:53:33.006Z,50.93
2019-01-19T21:56:05.340Z,54.80
2019-01-19T21:58:36.457Z,87.10
2019-01-19T22:01:08.325Z,60.70
2019-01-19T22:03:39.386Z,51.57
2019-01-19T22:06:10.170Z,52.73
2019-01-19T22:08:41.158Z,54.20
2019-01-19T22:11:12.039Z,53.97
2019-01-19T22:13:43.344Z,55.97
2019-01-19T22:16:14.504Z,56.00
2019-01-19T22:18:45.150Z,58.20
2019-01-19T22:21:16.250Z,54.73
2019-01-19T22:23:47.100Z,60.87
2019-01-19T22:26:20.679Z,64.37
2019-01-19T22:28:52.128Z,56.87
2019-01-19T22:31:23.599Z,68.33
2019-01-19T22:33:54.899Z,60.07
2019-01-19T22:36:26.328Z,59.47
2019-01-19T22:38:57.328Z,57.67
2019-01-19T22:41:29.069Z,87.67
2019-01-19T22:44:01.109Z,54.17
2019-01-19T22:46:31.986Z,56.93
2019-01-19T22:49:03.524Z,90.00
2019-01-19T22:51:36.200Z,59.43
2019-01-19T22:54:07.171Z,65.97
2019-01-19T22:56:38.379Z,58.90
2019-01-19T22:59:09.707Z,59.83
2019-01-19T23:01:51.652Z,58.30
2019-01-19T23:04:22.685Z,58.13
2019-01-19T23:06:53.907Z,61.57
2019-01-19T23:09:24.723Z,61.97
2019-01-19T23:11:55.433Z,62.10
2019-01-19T23:14:27.308Z,63.60
2019-01-19T23:16:58.117Z,80.03
2019-01-19T23:19:30.288Z,66.43
2019-01-19T23:22:01.183Z,81.50
2019-01-19T23:24:32.228Z,64.07
2019-01-19T23:27:07.619Z,66.40
2019-01-19T23:29:38.372Z,57.70
2019-01-19T23:32:09.050Z,60.07
2019-01-19T23:34:40.519Z,58.33
2019-01-19T23:37:11.772Z,57.60
2019-01-19T23:39:42.769Z,58.57
2019-01-19T23:42:14.175Z,57.87
2019-01-19T23:44:46.082Z,55.07
2019-01-19T23:47:17.146Z,61.13
2019-01-19T23:49:48.987Z,59.23
2019-01-19T23:52:21.067Z,60.40
2019-01-19T23:54:52.346Z,67.03
2019-01-19T23:57:24.055Z,64.70
2019-01-19T23:59:55.387Z,70.60
